EGPFEGAC

Guest
Details From EGPF - Glasgow
To EGAC - Belfast City
Flight Number -
Tags generated
Created
Modified
Stats Distance 90 nm / 167 km
Max Altitude 10,900 ft / 3,322 m
Waypoints 3
Social Downloads 0
Likes 0
Share VATSIM

Download

Looking for another format? Having issues loading an existing format? Contact us
Advertisement - Login to hide

Notes

Basic altitude profile: - Ascent Rate: 2500ft/min - Ascent Speed: 250kts - Cruise Altitude: 14000ft - Cruise Speed: 400kts - Descent Rate: 1500ft/min - Descent Speed: 250kts

Route

EGPF HERON EGAC

ID Type Via Altitude Latitude Longitude Leg Dist Tot Dist Heading (true) Name
O EGPF APT - 0 ft / 0 m 55.87173˚ -4.43365˚ - 0 nm - Glasgow
HERON FIX - 10,900 ft / 3,322 m 55.34306˚ -5.00000˚ 37 nm 37 nm 211° / 211° -
O EGAC APT - 0 ft / 0 m 54.61811˚ -5.87258˚ 52 nm 90 nm 215° / 214° Belfast City

Altitude Profile

Advertisement - Login to hide

EGPF

Details ICAO EGPF (GLA)
Name Glasgow
Region United Kingdom
Timezone Europe/London (UTC+1.0)
Stats Elevation 26 ft / 8 m (AMSL)
Location 55.871728° -4.433648°
Runways 1
Magnetic Variation 2.656° W

METAR

EGPF 230750Z AUTO 09010KT 9999 OVC014 10/07 Q1028

Decode

TAF

TAF TAF EGPF 230459Z 2306/2406 07009KT 9999 SCT014 PROB40 TEMPO 2306/2308 8000 BKN014 TEMPO 2321/2406 BKN012 PROB40 TEMPO 2402/2406 8000 BKN008

Decode

Departure Runways

ID Width Length Bearing (true) Bearing (mag) Surface Threshold Offset Overrun Length
05 151 ft / 46 m 8,721 ft / 2,658 m 46.34° 49.00° Asphalt 0 ft / 0 m 499 ft / 152 m
23 151 ft / 46 m 8,721 ft / 2,658 m 226.37° 229.03° Asphalt 1,004 ft / 306 m 0 ft / 0 m

EGAC

Details ICAO EGAC (BHD)
Name Belfast City
Region United Kingdom
Timezone Europe/London (UTC+1.0)
Stats Elevation 15 ft / 5 m (AMSL)
Location 54.618108° -5.872575°
Runways 1
Magnetic Variation 3.017° W

METAR

EGAC 230750Z AUTO 12005KT 9999 OVC011/// 11/09 Q1027

Decode

TAF

Not found

Destination Runways

ID Width Length Bearing (true) Bearing (mag) Surface Threshold Offset Overrun Length
04 148 ft / 45 m 6,009 ft / 1,832 m 34.93° 37.95° Asphalt 302 ft / 92 m 0 ft / 0 m
22 148 ft / 45 m 6,009 ft / 1,832 m 214.94° 217.96° Asphalt 0 ft / 0 m 0 ft / 0 m

Approach Navaids

Runway Type Ident Frequency Range Bearing (true) Bearing (mag) Slope Elevation
04 Localiser HBD 108.10 MHz 18 nm / 33 km 34.92° 37.94° - 15 ft / 5 m (AMSL)
04 DME HBD 108.10 MHz 18 nm / 33 km - - - 30 ft / 9 m (AMSL)
22 Localiser IBFH 108.10 MHz 18 nm / 33 km 214.69° 217.71° - 15 ft / 5 m (AMSL)
22 Glidescope IBFH 108.10 MHz 10 nm / 19 km 214.94° 217.95° 3.00° 50 ft / 15 m (AMSL)
22 DME IBFH 108.10 MHz 18 nm / 33 km - - - 30 ft / 9 m (AMSL)

Popular Alternatives